sensor_id;sensor_type;location;lat;lon;timestamp;P1;durP1;ratioP1;P2;durP2;ratioP2
73428;SDS011;61643;49.564;17.412;2023-07-13T00:00:26;3.90;;;3.17;;
73428;SDS011;61643;49.564;17.412;2023-07-13T00:02:53;4.25;;;3.15;;
73428;SDS011;61643;49.564;17.412;2023-07-13T00:05:22;5.05;;;3.22;;
73428;SDS011;61643;49.564;17.412;2023-07-13T00:07:49;3.53;;;2.80;;
73428;SDS011;61643;49.564;17.412;2023-07-13T00:10:16;7.00;;;2.85;;
73428;SDS011;61643;49.564;17.412;2023-07-13T00:12:42;3.97;;;2.90;;
73428;SDS011;61643;49.564;17.412;2023-07-13T00:15:20;3.95;;;3.20;;
73428;SDS011;61643;49.564;17.412;2023-07-13T00:17:54;3.10;;;2.75;;
73428;SDS011;61643;49.564;17.412;2023-07-13T00:20:21;4.30;;;3.22;;
73428;SDS011;61643;49.564;17.412;2023-07-13T00:22:50;4.10;;;3.17;;
73428;SDS011;61643;49.564;17.412;2023-07-13T00:25:19;4.03;;;3.15;;
73428;SDS011;61643;49.564;17.412;2023-07-13T00:27:47;4.30;;;3.25;;
73428;SDS011;61643;49.564;17.412;2023-07-13T00:30:14;5.07;;;3.45;;
73428;SDS011;61643;49.564;17.412;2023-07-13T00:32:40;4.07;;;3.25;;
73428;SDS011;61643;49.564;17.412;2023-07-13T00:35:06;5.22;;;3.30;;
73428;SDS011;61643;49.564;17.412;2023-07-13T00:37:33;4.93;;;3.45;;
73428;SDS011;61643;49.564;17.412;2023-07-13T00:40:02;4.10;;;2.92;;
73428;SDS011;61643;49.564;17.412;2023-07-13T00:42:31;5.35;;;3.42;;
73428;SDS011;61643;49.564;17.412;2023-07-13T00:45:04;4.95;;;3.30;;
73428;SDS011;61643;49.564;17.412;2023-07-13T00:49:56;9.45;;;3.78;;
73428;SDS011;61643;49.564;17.412;2023-07-13T00:52:23;10.20;;;4.35;;
73428;SDS011;61643;49.564;17.412;2023-07-13T00:54:49;6.93;;;3.55;;
73428;SDS011;61643;49.564;17.412;2023-07-13T00:57:16;7.00;;;3.58;;
73428;SDS011;61643;49.564;17.412;2023-07-13T00:59:47;7.00;;;3.55;;
73428;SDS011;61643;49.564;17.412;2023-07-13T01:02:17;4.60;;;3.25;;
73428;SDS011;61643;49.564;17.412;2023-07-13T01:04:43;6.00;;;3.83;;
73428;SDS011;61643;49.564;17.412;2023-07-13T01:07:10;4.97;;;3.20;;
73428;SDS011;61643;49.564;17.412;2023-07-13T01:09:38;7.32;;;3.78;;
73428;SDS011;61643;49.564;17.412;2023-07-13T01:12:04;4.97;;;4.07;;
73428;SDS011;61643;49.564;17.412;2023-07-13T01:14:30;5.07;;;3.90;;
73428;SDS011;61643;49.564;17.412;2023-07-13T01:16:56;5.75;;;4.00;;
73428;SDS011;61643;49.564;17.412;2023-07-13T01:19:33;6.45;;;4.20;;
73428;SDS011;61643;49.564;17.412;2023-07-13T01:22:06;5.95;;;4.28;;
73428;SDS011;61643;49.564;17.412;2023-07-13T01:24:41;5.18;;;3.90;;
73428;SDS011;61643;49.564;17.412;2023-07-13T01:27:09;5.60;;;3.75;;
73428;SDS011;61643;49.564;17.412;2023-07-13T01:29:38;6.60;;;4.07;;
73428;SDS011;61643;49.564;17.412;2023-07-13T01:32:08;4.00;;;3.28;;
73428;SDS011;61643;49.564;17.412;2023-07-13T01:34:36;4.20;;;3.10;;
73428;SDS011;61643;49.564;17.412;2023-07-13T01:37:03;6.20;;;3.25;;
73428;SDS011;61643;49.564;17.412;2023-07-13T01:41:57;3.70;;;2.85;;
73428;SDS011;61643;49.564;17.412;2023-07-13T01:44:23;5.15;;;3.35;;
73428;SDS011;61643;49.564;17.412;2023-07-13T01:46:49;4.72;;;3.30;;
73428;SDS011;61643;49.564;17.412;2023-07-13T01:49:15;4.28;;;3.33;;
73428;SDS011;61643;49.564;17.412;2023-07-13T01:51:41;5.90;;;3.25;;
73428;SDS011;61643;49.564;17.412;2023-07-13T01:54:07;4.40;;;3.22;;
73428;SDS011;61643;49.564;17.412;2023-07-13T01:56:33;4.35;;;3.33;;
73428;SDS011;61643;49.564;17.412;2023-07-13T01:58:59;5.25;;;3.22;;
73428;SDS011;61643;49.564;17.412;2023-07-13T02:01:25;3.17;;;2.60;;
73428;SDS011;61643;49.564;17.412;2023-07-13T02:03:51;4.43;;;2.85;;
73428;SDS011;61643;49.564;17.412;2023-07-13T02:06:17;6.00;;;3.20;;
73428;SDS011;61643;49.564;17.412;2023-07-13T02:08:43;4.93;;;3.10;;
73428;SDS011;61643;49.564;17.412;2023-07-13T02:11:09;3.63;;;2.90;;
73428;SDS011;61643;49.564;17.412;2023-07-13T02:13:35;5.43;;;2.90;;
73428;SDS011;61643;49.564;17.412;2023-07-13T02:16:01;3.03;;;2.72;;
73428;SDS011;61643;49.564;17.412;2023-07-13T02:18:27;3.85;;;2.90;;
73428;SDS011;61643;49.564;17.412;2023-07-13T02:20:54;2.67;;;2.42;;
73428;SDS011;61643;49.564;17.412;2023-07-13T02:23:19;6.05;;;3.08;;
73428;SDS011;61643;49.564;17.412;2023-07-13T02:25:45;4.72;;;2.75;;
73428;SDS011;61643;49.564;17.412;2023-07-13T02:28:11;5.40;;;3.08;;
73428;SDS011;61643;49.564;17.412;2023-07-13T02:30:38;4.13;;;2.85;;
73428;SDS011;61643;49.564;17.412;2023-07-13T02:33:04;4.43;;;3.00;;
73428;SDS011;61643;49.564;17.412;2023-07-13T02:35:31;5.30;;;3.20;;
73428;SDS011;61643;49.564;17.412;2023-07-13T02:37:57;6.30;;;3.10;;
73428;SDS011;61643;49.564;17.412;2023-07-13T02:40:23;4.50;;;3.42;;
73428;SDS011;61643;49.564;17.412;2023-07-13T02:42:48;5.20;;;3.42;;
73428;SDS011;61643;49.564;17.412;2023-07-13T02:45:14;6.60;;;3.30;;
73428;SDS011;61643;49.564;17.412;2023-07-13T02:47:41;4.05;;;2.58;;
73428;SDS011;61643;49.564;17.412;2023-07-13T02:50:07;4.60;;;2.97;;
73428;SDS011;61643;49.564;17.412;2023-07-13T02:52:33;4.82;;;2.65;;
73428;SDS011;61643;49.564;17.412;2023-07-13T02:54:59;3.72;;;2.67;;
73428;SDS011;61643;49.564;17.412;2023-07-13T02:57:26;3.47;;;2.38;;
73428;SDS011;61643;49.564;17.412;2023-07-13T02:59:53;2.75;;;2.30;;
73428;SDS011;61643;49.564;17.412;2023-07-13T03:02:20;2.85;;;2.20;;
73428;SDS011;61643;49.564;17.412;2023-07-13T03:04:46;4.20;;;2.50;;
73428;SDS011;61643;49.564;17.412;2023-07-13T03:07:12;5.57;;;2.58;;
73428;SDS011;61643;49.564;17.412;2023-07-13T03:09:39;3.88;;;2.60;;
73428;SDS011;61643;49.564;17.412;2023-07-13T03:12:05;3.55;;;2.55;;
73428;SDS011;61643;49.564;17.412;2023-07-13T03:14:31;4.68;;;2.60;;
73428;SDS011;61643;49.564;17.412;2023-07-13T03:16:57;2.33;;;2.13;;
73428;SDS011;61643;49.564;17.412;2023-07-13T03:19:23;4.88;;;2.60;;
73428;SDS011;61643;49.564;17.412;2023-07-13T03:21:49;4.18;;;2.67;;
73428;SDS011;61643;49.564;17.412;2023-07-13T03:24:15;4.40;;;3.05;;
73428;SDS011;61643;49.564;17.412;2023-07-13T03:26:41;4.28;;;2.67;;
73428;SDS011;61643;49.564;17.412;2023-07-13T03:29:07;3.95;;;2.58;;
73428;SDS011;61643;49.564;17.412;2023-07-13T03:31:34;3.75;;;2.80;;
73428;SDS011;61643;49.564;17.412;2023-07-13T03:34:03;3.63;;;2.90;;
73428;SDS011;61643;49.564;17.412;2023-07-13T03:36:29;4.57;;;3.08;;
73428;SDS011;61643;49.564;17.412;2023-07-13T03:38:58;6.40;;;2.60;;
73428;SDS011;61643;49.564;17.412;2023-07-13T03:41:25;6.22;;;2.70;;
73428;SDS011;61643;49.564;17.412;2023-07-13T03:43:52;4.30;;;2.58;;
73428;SDS011;61643;49.564;17.412;2023-07-13T03:46:18;3.45;;;2.70;;
73428;SDS011;61643;49.564;17.412;2023-07-13T03:48:45;4.30;;;2.92;;
73428;SDS011;61643;49.564;17.412;2023-07-13T03:51:13;3.78;;;3.20;;
73428;SDS011;61643;49.564;17.412;2023-07-13T03:53:41;4.47;;;3.20;;
73428;SDS011;61643;49.564;17.412;2023-07-13T03:58:35;5.25;;;3.28;;
73428;SDS011;61643;49.564;17.412;2023-07-13T04:01:03;4.60;;;3.15;;
73428;SDS011;61643;49.564;17.412;2023-07-13T04:03:31;4.68;;;3.20;;
73428;SDS011;61643;49.564;17.412;2023-07-13T04:05:58;6.43;;;3.42;;
73428;SDS011;61643;49.564;17.412;2023-07-13T04:08:26;5.43;;;3.30;;
73428;SDS011;61643;49.564;17.412;2023-07-13T04:13:19;7.38;;;3.40;;
73428;SDS011;61643;49.564;17.412;2023-07-13T04:15:45;7.20;;;3.50;;
73428;SDS011;61643;49.564;17.412;2023-07-13T04:18:11;5.10;;;2.70;;
73428;SDS011;61643;49.564;17.412;2023-07-13T04:20:37;5.05;;;3.00;;
73428;SDS011;61643;49.564;17.412;2023-07-13T04:23:03;3.88;;;2.78;;
73428;SDS011;61643;49.564;17.412;2023-07-13T04:25:29;4.80;;;2.90;;
73428;SDS011;61643;49.564;17.412;2023-07-13T04:27:55;4.88;;;2.92;;
73428;SDS011;61643;49.564;17.412;2023-07-13T04:30:22;5.50;;;3.00;;
73428;SDS011;61643;49.564;17.412;2023-07-13T04:32:51;3.95;;;2.83;;
73428;SDS011;61643;49.564;17.412;2023-07-13T04:35:21;3.60;;;2.80;;
73428;SDS011;61643;49.564;17.412;2023-07-13T04:37:50;4.85;;;3.15;;
73428;SDS011;61643;49.564;17.412;2023-07-13T04:40:20;5.97;;;2.60;;
73428;SDS011;61643;49.564;17.412;2023-07-13T04:42:46;5.43;;;3.00;;
73428;SDS011;61643;49.564;17.412;2023-07-13T04:45:13;4.45;;;3.03;;
73428;SDS011;61643;49.564;17.412;2023-07-13T04:47:40;6.35;;;2.88;;
73428;SDS011;61643;49.564;17.412;2023-07-13T04:50:07;3.65;;;3.08;;
73428;SDS011;61643;49.564;17.412;2023-07-13T04:52:34;5.72;;;3.22;;
73428;SDS011;61643;49.564;17.412;2023-07-13T04:55:00;5.45;;;3.25;;
73428;SDS011;61643;49.564;17.412;2023-07-13T04:57:27;4.13;;;3.08;;
73428;SDS011;61643;49.564;17.412;2023-07-13T04:59:53;5.18;;;3.30;;
73428;SDS011;61643;49.564;17.412;2023-07-13T05:02:22;5.35;;;3.30;;
73428;SDS011;61643;49.564;17.412;2023-07-13T05:04:48;6.43;;;3.30;;
73428;SDS011;61643;49.564;17.412;2023-07-13T05:07:14;4.45;;;3.17;;
73428;SDS011;61643;49.564;17.412;2023-07-13T05:09:40;4.75;;;3.33;;
73428;SDS011;61643;49.564;17.412;2023-07-13T05:12:08;4.85;;;3.33;;
73428;SDS011;61643;49.564;17.412;2023-07-13T05:14:34;5.00;;;3.10;;
73428;SDS011;61643;49.564;17.412;2023-07-13T05:17:00;6.60;;;2.92;;
73428;SDS011;61643;49.564;17.412;2023-07-13T05:19:26;5.10;;;3.40;;
73428;SDS011;61643;49.564;17.412;2023-07-13T05:21:52;5.70;;;2.88;;
73428;SDS011;61643;49.564;17.412;2023-07-13T05:24:18;5.53;;;3.05;;
73428;SDS011;61643;49.564;17.412;2023-07-13T05:26:44;3.95;;;3.08;;
73428;SDS011;61643;49.564;17.412;2023-07-13T05:29:11;4.45;;;3.22;;
73428;SDS011;61643;49.564;17.412;2023-07-13T05:31:37;6.38;;;3.30;;
73428;SDS011;61643;49.564;17.412;2023-07-13T05:34:03;4.03;;;3.10;;
73428;SDS011;61643;49.564;17.412;2023-07-13T05:36:29;6.43;;;3.92;;
73428;SDS011;61643;49.564;17.412;2023-07-13T05:38:55;4.28;;;3.15;;
73428;SDS011;61643;49.564;17.412;2023-07-13T05:41:21;5.25;;;3.70;;
73428;SDS011;61643;49.564;17.412;2023-07-13T05:43:47;6.60;;;3.90;;
73428;SDS011;61643;49.564;17.412;2023-07-13T05:46:13;7.65;;;3.50;;
73428;SDS011;61643;49.564;17.412;2023-07-13T05:48:38;5.20;;;3.40;;
73428;SDS011;61643;49.564;17.412;2023-07-13T05:51:04;4.47;;;3.55;;
73428;SDS011;61643;49.564;17.412;2023-07-13T05:53:31;6.40;;;3.83;;
73428;SDS011;61643;49.564;17.412;2023-07-13T05:55:56;6.68;;;4.20;;
73428;SDS011;61643;49.564;17.412;2023-07-13T05:58:23;7.97;;;4.35;;
73428;SDS011;61643;49.564;17.412;2023-07-13T06:00:57;6.07;;;3.72;;
73428;SDS011;61643;49.564;17.412;2023-07-13T06:03:25;5.55;;;4.45;;
73428;SDS011;61643;49.564;17.412;2023-07-13T06:05:51;6.43;;;3.92;;
73428;SDS011;61643;49.564;17.412;2023-07-13T06:08:17;7.88;;;4.30;;
73428;SDS011;61643;49.564;17.412;2023-07-13T06:10:43;5.60;;;4.32;;
73428;SDS011;61643;49.564;17.412;2023-07-13T06:13:09;7.80;;;4.55;;
73428;SDS011;61643;49.564;17.412;2023-07-13T06:15:35;8.00;;;4.82;;
73428;SDS011;61643;49.564;17.412;2023-07-13T06:18:01;8.65;;;5.15;;
73428;SDS011;61643;49.564;17.412;2023-07-13T06:20:27;6.63;;;5.13;;
73428;SDS011;61643;49.564;17.412;2023-07-13T06:22:54;8.38;;;5.53;;
73428;SDS011;61643;49.564;17.412;2023-07-13T06:25:20;11.32;;;5.80;;
73428;SDS011;61643;49.564;17.412;2023-07-13T06:27:46;7.85;;;5.75;;
73428;SDS011;61643;49.564;17.412;2023-07-13T06:30:12;10.13;;;5.82;;
73428;SDS011;61643;49.564;17.412;2023-07-13T06:32:38;7.57;;;5.45;;
73428;SDS011;61643;49.564;17.412;2023-07-13T06:35:04;11.25;;;6.05;;
73428;SDS011;61643;49.564;17.412;2023-07-13T06:37:31;8.43;;;5.85;;
73428;SDS011;61643;49.564;17.412;2023-07-13T06:39:57;11.52;;;6.25;;
73428;SDS011;61643;49.564;17.412;2023-07-13T06:42:23;8.63;;;6.07;;
73428;SDS011;61643;49.564;17.412;2023-07-13T06:44:48;9.38;;;5.85;;
73428;SDS011;61643;49.564;17.412;2023-07-13T06:47:14;8.85;;;5.97;;
73428;SDS011;61643;49.564;17.412;2023-07-13T06:49:40;7.72;;;5.50;;
73428;SDS011;61643;49.564;17.412;2023-07-13T06:52:06;11.13;;;6.00;;
73428;SDS011;61643;49.564;17.412;2023-07-13T06:54:32;9.30;;;5.63;;
73428;SDS011;61643;49.564;17.412;2023-07-13T06:57:01;9.30;;;5.32;;
73428;SDS011;61643;49.564;17.412;2023-07-13T06:59:27;7.50;;;5.10;;
73428;SDS011;61643;49.564;17.412;2023-07-13T07:01:53;8.65;;;4.90;;
73428;SDS011;61643;49.564;17.412;2023-07-13T07:04:19;9.38;;;5.82;;
73428;SDS011;61643;49.564;17.412;2023-07-13T07:06:45;8.35;;;5.18;;
73428;SDS011;61643;49.564;17.412;2023-07-13T07:09:11;7.57;;;5.53;;
73428;SDS011;61643;49.564;17.412;2023-07-13T07:11:37;6.45;;;5.32;;
73428;SDS011;61643;49.564;17.412;2023-07-13T07:14:03;9.52;;;5.43;;
73428;SDS011;61643;49.564;17.412;2023-07-13T07:16:30;8.07;;;5.30;;
73428;SDS011;61643;49.564;17.412;2023-07-13T07:18:56;8.82;;;5.00;;
73428;SDS011;61643;49.564;17.412;2023-07-13T07:21:22;6.82;;;5.05;;
73428;SDS011;61643;49.564;17.412;2023-07-13T07:23:48;6.70;;;4.65;;
73428;SDS011;61643;49.564;17.412;2023-07-13T07:26:14;8.82;;;5.35;;
73428;SDS011;61643;49.564;17.412;2023-07-13T07:28:41;8.98;;;5.07;;
73428;SDS011;61643;49.564;17.412;2023-07-13T07:31:07;5.78;;;4.75;;
73428;SDS011;61643;49.564;17.412;2023-07-13T07:33:33;7.50;;;5.03;;
73428;SDS011;61643;49.564;17.412;2023-07-13T07:36:00;8.75;;;5.57;;
73428;SDS011;61643;49.564;17.412;2023-07-13T07:38:26;7.53;;;5.47;;
73428;SDS011;61643;49.564;17.412;2023-07-13T07:40:52;6.82;;;5.07;;
73428;SDS011;61643;49.564;17.412;2023-07-13T07:43:19;13.10;;;5.55;;
73428;SDS011;61643;49.564;17.412;2023-07-13T07:45:45;7.47;;;5.00;;
73428;SDS011;61643;49.564;17.412;2023-07-13T07:48:11;10.05;;;4.70;;
73428;SDS011;61643;49.564;17.412;2023-07-13T07:50:38;9.27;;;4.75;;
73428;SDS011;61643;49.564;17.412;2023-07-13T07:53:05;8.50;;;4.65;;
73428;SDS011;61643;49.564;17.412;2023-07-13T07:55:36;10.52;;;5.05;;
73428;SDS011;61643;49.564;17.412;2023-07-13T07:58:02;7.88;;;5.32;;
73428;SDS011;61643;49.564;17.412;2023-07-13T08:00:28;10.13;;;5.40;;
73428;SDS011;61643;49.564;17.412;2023-07-13T08:02:57;7.85;;;5.05;;
73428;SDS011;61643;49.564;17.412;2023-07-13T08:05:24;6.82;;;4.93;;
73428;SDS011;61643;49.564;17.412;2023-07-13T08:07:51;9.57;;;5.85;;
73428;SDS011;61643;49.564;17.412;2023-07-13T08:10:17;9.90;;;6.13;;
73428;SDS011;61643;49.564;17.412;2023-07-13T08:12:43;8.77;;;5.78;;
73428;SDS011;61643;49.564;17.412;2023-07-13T08:15:10;7.68;;;6.00;;
73428;SDS011;61643;49.564;17.412;2023-07-13T08:17:38;8.25;;;6.03;;
73428;SDS011;61643;49.564;17.412;2023-07-13T08:20:04;8.57;;;6.20;;
73428;SDS011;61643;49.564;17.412;2023-07-13T08:22:30;13.73;;;6.85;;
73428;SDS011;61643;49.564;17.412;2023-07-13T08:24:58;8.82;;;6.13;;
73428;SDS011;61643;49.564;17.412;2023-07-13T08:27:25;10.75;;;6.53;;
73428;SDS011;61643;49.564;17.412;2023-07-13T08:29:52;15.48;;;7.10;;
73428;SDS011;61643;49.564;17.412;2023-07-13T08:32:19;9.75;;;6.95;;
73428;SDS011;61643;49.564;17.412;2023-07-13T08:37:12;10.15;;;6.32;;
73428;SDS011;61643;49.564;17.412;2023-07-13T08:39:39;10.27;;;6.60;;
73428;SDS011;61643;49.564;17.412;2023-07-13T08:42:07;9.70;;;7.03;;
73428;SDS011;61643;49.564;17.412;2023-07-13T08:44:49;8.85;;;6.70;;
73428;SDS011;61643;49.564;17.412;2023-07-13T08:47:20;9.52;;;6.53;;
73428;SDS011;61643;49.564;17.412;2023-07-13T08:49:48;9.32;;;6.65;;
73428;SDS011;61643;49.564;17.412;2023-07-13T08:52:17;8.68;;;6.78;;
73428;SDS011;61643;49.564;17.412;2023-07-13T08:54:58;10.25;;;6.95;;
73428;SDS011;61643;49.564;17.412;2023-07-13T08:57:33;12.10;;;7.25;;
73428;SDS011;61643;49.564;17.412;2023-07-13T09:00:00;11.63;;;7.25;;
73428;SDS011;61643;49.564;17.412;2023-07-13T09:05:02;8.38;;;6.60;;
73428;SDS011;61643;49.564;17.412;2023-07-13T09:13:04;11.88;;;8.13;;
73428;SDS011;61643;49.564;17.412;2023-07-13T09:15:45;9.43;;;6.60;;
73428;SDS011;61643;49.564;17.412;2023-07-13T09:20:53;10.00;;;6.93;;
73428;SDS011;61643;49.564;17.412;2023-07-13T09:23:23;10.90;;;6.68;;
73428;SDS011;61643;49.564;17.412;2023-07-13T09:25:53;11.60;;;7.30;;
73428;SDS011;61643;49.564;17.412;2023-07-13T09:28:25;8.38;;;6.25;;
73428;SDS011;61643;49.564;17.412;2023-07-13T09:31:07;9.43;;;6.75;;
73428;SDS011;61643;49.564;17.412;2023-07-13T09:33:39;10.07;;;6.78;;
73428;SDS011;61643;49.564;17.412;2023-07-13T09:36:39;8.75;;;6.63;;
73428;SDS011;61643;49.564;17.412;2023-07-13T09:41:29;9.00;;;6.82;;
73428;SDS011;61643;49.564;17.412;2023-07-13T09:44:13;15.02;;;7.72;;
73428;SDS011;61643;49.564;17.412;2023-07-13T09:46:46;8.75;;;6.47;;
73428;SDS011;61643;49.564;17.412;2023-07-13T09:49:17;9.70;;;6.78;;
73428;SDS011;61643;49.564;17.412;2023-07-13T09:51:43;9.32;;;6.78;;
73428;SDS011;61643;49.564;17.412;2023-07-13T09:54:19;9.48;;;7.10;;
73428;SDS011;61643;49.564;17.412;2023-07-13T09:56:47;8.90;;;6.95;;
73428;SDS011;61643;49.564;17.412;2023-07-13T09:59:23;10.48;;;7.03;;
73428;SDS011;61643;49.564;17.412;2023-07-13T10:01:54;8.95;;;7.30;;
73428;SDS011;61643;49.564;17.412;2023-07-13T10:04:26;10.43;;;6.45;;
73428;SDS011;61643;49.564;17.412;2023-07-13T10:07:12;9.88;;;6.70;;
73428;SDS011;61643;49.564;17.412;2023-07-13T10:09:39;9.05;;;6.85;;
73428;SDS011;61643;49.564;17.412;2023-07-13T10:12:13;8.23;;;7.07;;
73428;SDS011;61643;49.564;17.412;2023-07-13T10:14:41;9.65;;;7.57;;
73428;SDS011;61643;49.564;17.412;2023-07-13T10:17:12;8.20;;;5.00;;
73428;SDS011;61643;49.564;17.412;2023-07-13T10:19:40;6.97;;;4.60;;
73428;SDS011;61643;49.564;17.412;2023-07-13T10:22:26;4.60;;;4.03;;
73428;SDS011;61643;49.564;17.412;2023-07-13T10:24:58;6.30;;;4.10;;
73428;SDS011;61643;49.564;17.412;2023-07-13T10:32:30;5.60;;;3.88;;
73428;SDS011;61643;49.564;17.412;2023-07-13T10:34:56;4.80;;;3.88;;
73428;SDS011;61643;49.564;17.412;2023-07-13T10:37:26;4.18;;;3.75;;
73428;SDS011;61643;49.564;17.412;2023-07-13T10:40:04;4.28;;;3.60;;
73428;SDS011;61643;49.564;17.412;2023-07-13T10:42:39;6.88;;;3.83;;
73428;SDS011;61643;49.564;17.412;2023-07-13T10:45:16;4.28;;;3.88;;
73428;SDS011;61643;49.564;17.412;2023-07-13T10:47:44;4.72;;;3.30;;
73428;SDS011;61643;49.564;17.412;2023-07-13T10:50:15;3.97;;;3.55;;
73428;SDS011;61643;49.564;17.412;2023-07-13T10:52:49;5.05;;;3.50;;
73428;SDS011;61643;49.564;17.412;2023-07-13T10:58:27;3.45;;;3.15;;
73428;SDS011;61643;49.564;17.412;2023-07-13T11:01:12;3.78;;;3.38;;
73428;SDS011;61643;49.564;17.412;2023-07-13T11:12:01;2.83;;;2.60;;
73428;SDS011;61643;49.564;17.412;2023-07-13T11:14:42;2.80;;;2.60;;
73428;SDS011;61643;49.564;17.412;2023-07-13T11:30:47;3.95;;;2.85;;
73428;SDS011;61643;49.564;17.412;2023-07-13T11:33:17;3.72;;;2.80;;
73428;SDS011;61643;49.564;17.412;2023-07-13T11:38:23;5.13;;;4.60;;
73428;SDS011;61643;49.564;17.412;2023-07-13T11:43:18;4.60;;;4.07;;
73428;SDS011;61643;49.564;17.412;2023-07-13T11:45:44;6.70;;;4.72;;
73428;SDS011;61643;49.564;17.412;2023-07-13T11:48:20;4.75;;;4.07;;
73428;SDS011;61643;49.564;17.412;2023-07-13T11:50:56;5.75;;;3.90;;
73428;SDS011;61643;49.564;17.412;2023-07-13T11:53:26;6.25;;;4.25;;
73428;SDS011;61643;49.564;17.412;2023-07-13T11:55:54;8.23;;;4.50;;
73428;SDS011;61643;49.564;17.412;2023-07-13T11:58:21;6.13;;;4.35;;
73428;SDS011;61643;49.564;17.412;2023-07-13T12:00:50;5.60;;;4.88;;
73428;SDS011;61643;49.564;17.412;2023-07-13T12:03:20;5.43;;;4.47;;
73428;SDS011;61643;49.564;17.412;2023-07-13T12:06:00;4.95;;;4.45;;
73428;SDS011;61643;49.564;17.412;2023-07-13T12:08:39;5.68;;;5.05;;
73428;SDS011;61643;49.564;17.412;2023-07-13T12:11:14;5.68;;;4.55;;
73428;SDS011;61643;49.564;17.412;2023-07-13T12:13:43;4.45;;;3.85;;
73428;SDS011;61643;49.564;17.412;2023-07-13T12:16:25;5.18;;;4.68;;
73428;SDS011;61643;49.564;17.412;2023-07-13T12:18:52;7.00;;;5.07;;
73428;SDS011;61643;49.564;17.412;2023-07-13T12:21:19;4.70;;;4.20;;
73428;SDS011;61643;49.564;17.412;2023-07-13T12:23:48;6.07;;;3.78;;
73428;SDS011;61643;49.564;17.412;2023-07-13T12:26:14;5.18;;;4.00;;
73428;SDS011;61643;49.564;17.412;2023-07-13T12:28:46;4.85;;;3.72;;
73428;SDS011;61643;49.564;17.412;2023-07-13T12:31:31;4.47;;;4.07;;
73428;SDS011;61643;49.564;17.412;2023-07-13T12:36:49;7.15;;;3.88;;
73428;SDS011;61643;49.564;17.412;2023-07-13T12:39:25;4.35;;;3.40;;
73428;SDS011;61643;49.564;17.412;2023-07-13T12:42:16;4.07;;;3.15;;
73428;SDS011;61643;49.564;17.412;2023-07-13T12:44:56;3.25;;;2.90;;
73428;SDS011;61643;49.564;17.412;2023-07-13T12:47:26;3.83;;;2.90;;
73428;SDS011;61643;49.564;17.412;2023-07-13T12:49:54;2.85;;;2.65;;
73428;SDS011;61643;49.564;17.412;2023-07-13T12:52:23;2.88;;;2.60;;
73428;SDS011;61643;49.564;17.412;2023-07-13T12:55:03;3.63;;;2.60;;
73428;SDS011;61643;49.564;17.412;2023-07-13T12:57:47;2.90;;;2.60;;
73428;SDS011;61643;49.564;17.412;2023-07-13T13:00:31;3.55;;;2.40;;
73428;SDS011;61643;49.564;17.412;2023-07-13T13:03:13;3.00;;;2.33;;
73428;SDS011;61643;49.564;17.412;2023-07-13T13:05:47;4.03;;;2.42;;
73428;SDS011;61643;49.564;17.412;2023-07-13T13:08:13;5.35;;;3.17;;
73428;SDS011;61643;49.564;17.412;2023-07-13T13:10:39;4.25;;;3.10;;
73428;SDS011;61643;49.564;17.412;2023-07-13T13:13:05;3.78;;;3.38;;
73428;SDS011;61643;49.564;17.412;2023-07-13T13:15:31;4.63;;;3.70;;
73428;SDS011;61643;49.564;17.412;2023-07-13T13:17:58;4.22;;;3.10;;
73428;SDS011;61643;49.564;17.412;2023-07-13T13:20:24;4.20;;;2.97;;
73428;SDS011;61643;49.564;17.412;2023-07-13T13:22:51;3.50;;;3.20;;
73428;SDS011;61643;49.564;17.412;2023-07-13T13:25:18;3.80;;;3.05;;
73428;SDS011;61643;49.564;17.412;2023-07-13T13:27:44;4.72;;;3.03;;
73428;SDS011;61643;49.564;17.412;2023-07-13T13:30:12;4.78;;;3.35;;
73428;SDS011;61643;49.564;17.412;2023-07-13T13:32:39;4.43;;;2.90;;
73428;SDS011;61643;49.564;17.412;2023-07-13T13:35:12;3.80;;;3.17;;
73428;SDS011;61643;49.564;17.412;2023-07-13T13:37:40;3.20;;;2.90;;
73428;SDS011;61643;49.564;17.412;2023-07-13T13:40:13;1.60;;;1.50;;
73428;SDS011;61643;49.564;17.412;2023-07-13T13:42:44;1.27;;;1.17;;
73428;SDS011;61643;49.564;17.412;2023-07-13T13:45:10;1.27;;;1.17;;
73428;SDS011;61643;49.564;17.412;2023-07-13T13:47:38;2.10;;;1.40;;
73428;SDS011;61643;49.564;17.412;2023-07-13T13:52:40;3.13;;;1.60;;
73428;SDS011;61643;49.564;17.412;2023-07-13T13:55:16;1.33;;;1.23;;
73428;SDS011;61643;49.564;17.412;2023-07-13T13:57:47;2.15;;;1.30;;
73428;SDS011;61643;49.564;17.412;2023-07-13T14:00:14;2.70;;;1.25;;
73428;SDS011;61643;49.564;17.412;2023-07-13T14:02:46;3.45;;;1.58;;
73428;SDS011;61643;49.564;17.412;2023-07-13T14:05:15;3.00;;;1.38;;
73428;SDS011;61643;49.564;17.412;2023-07-13T14:07:45;2.08;;;1.45;;
73428;SDS011;61643;49.564;17.412;2023-07-13T14:10:12;2.65;;;1.60;;
73428;SDS011;61643;49.564;17.412;2023-07-13T14:12:41;2.28;;;1.48;;
73428;SDS011;61643;49.564;17.412;2023-07-13T14:15:18;1.90;;;1.70;;
73428;SDS011;61643;49.564;17.412;2023-07-13T14:17:48;3.20;;;1.65;;
73428;SDS011;61643;49.564;17.412;2023-07-13T14:20:15;1.73;;;1.60;;
73428;SDS011;61643;49.564;17.412;2023-07-13T14:22:42;6.32;;;1.70;;
73428;SDS011;61643;49.564;17.412;2023-07-13T14:25:15;1.40;;;1.30;;
73428;SDS011;61643;49.564;17.412;2023-07-13T14:27:42;1.95;;;1.40;;
73428;SDS011;61643;49.564;17.412;2023-07-13T14:30:16;1.30;;;1.20;;
73428;SDS011;61643;49.564;17.412;2023-07-13T14:32:47;2.40;;;1.48;;
73428;SDS011;61643;49.564;17.412;2023-07-13T14:35:15;1.75;;;1.50;;
73428;SDS011;61643;49.564;17.412;2023-07-13T14:37:42;2.05;;;1.33;;
73428;SDS011;61643;49.564;17.412;2023-07-13T14:42:39;1.52;;;1.42;;
73428;SDS011;61643;49.564;17.412;2023-07-13T14:45:05;1.30;;;1.20;;
73428;SDS011;61643;49.564;17.412;2023-07-13T14:47:37;1.48;;;1.30;;
73428;SDS011;61643;49.564;17.412;2023-07-13T14:50:03;2.17;;;1.48;;
73428;SDS011;61643;49.564;17.412;2023-07-13T14:52:30;1.52;;;1.42;;
73428;SDS011;61643;49.564;17.412;2023-07-13T14:54:56;1.60;;;1.50;;
73428;SDS011;61643;49.564;17.412;2023-07-13T14:57:22;1.83;;;1.40;;
73428;SDS011;61643;49.564;17.412;2023-07-13T14:59:48;1.92;;;1.42;;
73428;SDS011;61643;49.564;17.412;2023-07-13T15:04:49;1.90;;;1.70;;
73428;SDS011;61643;49.564;17.412;2023-07-13T15:07:15;1.90;;;1.70;;
73428;SDS011;61643;49.564;17.412;2023-07-13T15:09:43;1.88;;;1.70;;
73428;SDS011;61643;49.564;17.412;2023-07-13T15:12:09;2.25;;;1.40;;
73428;SDS011;61643;49.564;17.412;2023-07-13T15:14:36;2.00;;;1.58;;
73428;SDS011;61643;49.564;17.412;2023-07-13T15:17:02;3.17;;;1.60;;
73428;SDS011;61643;49.564;17.412;2023-07-13T15:19:28;1.85;;;1.50;;
73428;SDS011;61643;49.564;17.412;2023-07-13T15:21:54;1.85;;;1.75;;
73428;SDS011;61643;49.564;17.412;2023-07-13T15:24:23;2.33;;;2.03;;
73428;SDS011;61643;49.564;17.412;2023-07-13T15:26:49;2.03;;;1.52;;
73428;SDS011;61643;49.564;17.412;2023-07-13T15:29:16;1.40;;;1.30;;
73428;SDS011;61643;49.564;17.412;2023-07-13T15:31:43;3.90;;;1.60;;
73428;SDS011;61643;49.564;17.412;2023-07-13T15:34:10;3.10;;;1.70;;
73428;SDS011;61643;49.564;17.412;2023-07-13T15:36:38;3.97;;;1.50;;
73428;SDS011;61643;49.564;17.412;2023-07-13T15:39:05;1.50;;;1.40;;
73428;SDS011;61643;49.564;17.412;2023-07-13T15:41:32;2.38;;;1.73;;
73428;SDS011;61643;49.564;17.412;2023-07-13T15:43:59;2.65;;;1.73;;
73428;SDS011;61643;49.564;17.412;2023-07-13T15:46:30;1.80;;;1.60;;
73428;SDS011;61643;49.564;17.412;2023-07-13T15:48:56;2.08;;;1.58;;
73428;SDS011;61643;49.564;17.412;2023-07-13T15:51:24;1.83;;;1.58;;